createdAt,value
2023-03-15T00:00:40.208Z,0.00
2023-03-15T00:01:40.324Z,0.00
2023-03-15T00:02:43.122Z,0.00
2023-03-15T00:03:40.569Z,0.00
2023-03-15T00:04:40.743Z,0.00
2023-03-15T00:05:40.920Z,0.00
2023-03-15T00:06:41.034Z,0.00
2023-03-15T00:07:41.062Z,0.00
2023-03-15T00:08:41.236Z,0.00
2023-03-15T00:09:41.322Z,0.00
2023-03-15T00:10:41.535Z,0.00
2023-03-15T00:11:41.647Z,0.00
2023-03-15T00:12:41.772Z,0.00
2023-03-15T00:13:41.870Z,0.00
2023-03-15T00:14:42.038Z,0.00
2023-03-15T00:15:42.151Z,0.00
2023-03-15T00:16:42.335Z,0.00
2023-03-15T00:17:42.458Z,0.00
2023-03-15T00:18:42.488Z,0.00
2023-03-15T00:19:42.658Z,0.00
2023-03-15T00:20:42.805Z,0.00
2023-03-15T00:21:42.937Z,0.00
2023-03-15T00:22:43.034Z,0.00
2023-03-15T00:23:43.160Z,0.00
2023-03-15T00:24:43.256Z,0.00
2023-03-15T00:25:43.421Z,0.00
2023-03-15T00:26:43.497Z,0.00
2023-03-15T00:27:43.595Z,0.00
2023-03-15T00:28:43.709Z,0.00
2023-03-15T00:29:43.820Z,0.00
2023-03-15T00:30:43.966Z,0.00
2023-03-15T00:31:44.202Z,0.00
2023-03-15T00:32:44.201Z,0.00
2023-03-15T00:33:44.328Z,0.00
2023-03-15T00:34:44.384Z,0.00
2023-03-15T00:35:44.538Z,0.00
2023-03-15T00:36:44.664Z,0.00
2023-03-15T00:37:44.762Z,0.00
2023-03-15T00:38:44.872Z,0.00
2023-03-15T00:39:45.024Z,0.00
2023-03-15T00:40:45.135Z,0.00
2023-03-15T00:41:45.239Z,0.00
2023-03-15T00:42:45.370Z,0.00
2023-03-15T00:43:45.476Z,0.00
2023-03-15T00:44:45.659Z,0.00
2023-03-15T00:45:45.818Z,0.00
2023-03-15T00:46:46.049Z,0.00
2023-03-15T00:47:46.020Z,0.00
2023-03-15T00:48:46.132Z,0.00
2023-03-15T00:49:46.258Z,0.00
2023-03-15T00:50:46.368Z,0.00
2023-03-15T00:51:46.498Z,0.00
2023-03-15T00:52:46.657Z,0.00
2023-03-15T00:53:46.839Z,0.00
2023-03-15T00:54:46.871Z,0.00
2023-03-15T00:55:46.982Z,0.00
2023-03-15T00:56:47.117Z,0.00
2023-03-15T00:57:47.296Z,0.00
2023-03-15T00:58:47.346Z,0.00
2023-03-15T00:59:47.455Z,0.00
2023-03-15T01:00:47.565Z,0.00
2023-03-15T01:01:47.728Z,0.00
2023-03-15T01:02:47.921Z,0.00
2023-03-15T01:03:47.975Z,0.00
2023-03-15T01:04:48.095Z,0.00
2023-03-15T01:05:48.203Z,0.00
2023-03-15T01:06:48.301Z,0.00
2023-03-15T01:07:48.492Z,0.00
2023-03-15T01:08:48.574Z,0.00
2023-03-15T01:09:48.739Z,0.00
2023-03-15T01:10:48.802Z,0.00
2023-03-15T01:11:48.910Z,0.00
2023-03-15T01:12:49.094Z,0.00
2023-03-15T01:13:49.230Z,0.00
2023-03-15T01:14:49.321Z,0.00
2023-03-15T01:15:49.492Z,0.00
2023-03-15T01:16:49.605Z,0.00
2023-03-15T01:17:49.698Z,0.00
2023-03-15T01:18:49.864Z,0.00
2023-03-15T01:19:49.970Z,0.00
2023-03-15T01:20:50.080Z,0.00
2023-03-15T01:21:50.217Z,0.00
2023-03-15T01:22:50.338Z,0.00
2023-03-15T01:23:50.478Z,0.00
2023-03-15T01:24:50.597Z,0.00
2023-03-15T01:25:50.753Z,0.00
2023-03-15T01:26:51.041Z,0.00
2023-03-15T01:27:52.497Z,0.00
2023-03-15T01:28:51.118Z,0.00
2023-03-15T01:29:51.226Z,0.00
2023-03-15T01:30:51.339Z,0.00
2023-03-15T01:31:51.476Z,0.00
2023-03-15T01:32:51.577Z,0.00
2023-03-15T01:33:51.672Z,0.00
2023-03-15T01:34:51.807Z,0.00
2023-03-15T01:35:51.964Z,0.00
2023-03-15T01:36:52.072Z,0.00
2023-03-15T01:37:52.156Z,0.00
2023-03-15T01:38:52.255Z,0.00
2023-03-15T01:39:52.485Z,0.00
2023-03-15T01:40:52.513Z,0.00
2023-03-15T01:41:52.653Z,0.00
2023-03-15T01:42:52.813Z,0.00
2023-03-15T01:43:52.900Z,0.00
2023-03-15T01:44:53.063Z,0.00
2023-03-15T01:45:53.200Z,0.00
2023-03-15T01:46:53.318Z,0.00
2023-03-15T01:47:53.401Z,0.00
2023-03-15T01:48:53.571Z,0.00
2023-03-15T01:49:53.705Z,0.00
2023-03-15T01:50:53.811Z,0.00
2023-03-15T01:51:53.920Z,0.00
2023-03-15T01:52:54.059Z,0.00
2023-03-15T01:53:54.882Z,0.00
2023-03-15T01:54:54.377Z,0.00
2023-03-15T01:55:54.530Z,0.00
2023-03-15T01:56:54.601Z,0.00
2023-03-15T01:57:54.737Z,0.00
2023-03-15T01:58:55.157Z,0.00
2023-03-15T01:59:55.047Z,0.00
2023-03-15T02:00:55.239Z,0.00
2023-03-15T02:01:55.396Z,0.00
2023-03-15T02:02:55.415Z,0.00
2023-03-15T02:03:55.565Z,0.00
2023-03-15T02:04:55.702Z,0.00
2023-03-15T02:05:55.828Z,0.00
2023-03-15T02:06:55.907Z,0.00
2023-03-15T02:07:56.077Z,0.00
2023-03-15T02:08:56.201Z,0.00
2023-03-15T02:09:56.316Z,0.00
2023-03-15T02:10:56.509Z,0.00
2023-03-15T02:11:56.584Z,0.00
2023-03-15T02:12:56.692Z,0.00
2023-03-15T02:13:56.820Z,0.00
2023-03-15T02:14:56.955Z,0.00
2023-03-15T02:15:57.092Z,0.00
2023-03-15T02:16:57.146Z,0.00
2023-03-15T02:17:57.272Z,0.00
2023-03-15T02:18:57.382Z,0.00
2023-03-15T02:19:57.597Z,0.00
2023-03-15T02:20:57.631Z,0.00
2023-03-15T02:21:57.723Z,0.00
2023-03-15T02:22:57.837Z,0.00
2023-03-15T02:23:57.942Z,0.00
2023-03-15T02:24:59.060Z,0.00
2023-03-15T02:25:58.286Z,0.00
2023-03-15T02:26:58.337Z,0.00
2023-03-15T02:27:58.401Z,0.00
2023-03-15T02:28:58.480Z,0.00
2023-03-15T02:29:58.671Z,0.00
2023-03-15T02:30:59.098Z,0.00
2023-03-15T02:31:59.006Z,0.00
2023-03-15T02:32:59.060Z,0.00
2023-03-15T02:33:59.110Z,0.00
2023-03-15T02:34:59.247Z,0.00
2023-03-15T02:35:59.518Z,0.00
2023-03-15T02:36:59.549Z,0.00
2023-03-15T02:37:59.676Z,0.00
2023-03-15T02:38:59.765Z,0.00
2023-03-15T02:39:59.917Z,0.00
2023-03-15T02:41:00.086Z,0.00
2023-03-15T02:42:00.174Z,0.00
2023-03-15T02:43:00.264Z,0.00
2023-03-15T02:44:00.429Z,0.00
2023-03-15T02:45:00.562Z,0.00
2023-03-15T02:46:00.756Z,0.00
2023-03-15T02:47:00.833Z,0.00
2023-03-15T02:48:00.938Z,0.00
2023-03-15T02:49:01.094Z,0.00
2023-03-15T02:50:01.269Z,0.00
2023-03-15T02:51:01.376Z,0.00
2023-03-15T02:52:01.527Z,0.00
2023-03-15T02:53:01.637Z,0.00
2023-03-15T02:54:01.723Z,0.00
2023-03-15T02:55:01.874Z,0.00
2023-03-15T02:56:01.975Z,0.00
2023-03-15T02:57:02.187Z,0.00
2023-03-15T02:58:02.267Z,0.00
2023-03-15T02:59:02.364Z,0.00
2023-03-15T03:00:02.511Z,0.00
2023-03-15T03:01:02.726Z,0.00
2023-03-15T03:02:02.927Z,0.00
2023-03-15T03:03:02.953Z,0.00
2023-03-15T03:04:03.077Z,0.00
2023-03-15T03:05:03.166Z,0.00
2023-03-15T03:06:03.299Z,0.00
2023-03-15T03:07:03.520Z,0.00
2023-03-15T03:08:03.594Z,0.00
2023-03-15T03:09:03.753Z,0.00
2023-03-15T03:10:03.844Z,0.00
2023-03-15T03:11:03.993Z,0.00
2023-03-15T03:12:04.109Z,0.00
2023-03-15T03:13:04.286Z,0.00
2023-03-15T03:14:04.371Z,0.00
2023-03-15T03:15:04.457Z,0.00
2023-03-15T03:16:04.599Z,0.00
2023-03-15T03:17:04.778Z,0.00
2023-03-15T03:18:04.890Z,0.00
2023-03-15T03:19:04.959Z,0.00
2023-03-15T03:20:05.174Z,0.00
2023-03-15T03:21:05.250Z,0.00
2023-03-15T03:22:05.346Z,0.00
2023-03-15T03:23:05.474Z,0.00
2023-03-15T03:24:05.572Z,0.00
2023-03-15T03:25:05.660Z,0.00
2023-03-15T03:26:05.820Z,0.00
2023-03-15T03:27:05.953Z,0.00
2023-03-15T03:28:06.118Z,0.00
2023-03-15T03:29:06.202Z,0.00
2023-03-15T03:30:06.328Z,0.00
2023-03-15T03:31:06.469Z,0.00
2023-03-15T03:32:06.588Z,0.00
2023-03-15T03:33:06.698Z,0.00
2023-03-15T03:34:06.794Z,0.00
2023-03-15T03:35:06.933Z,0.00
2023-03-15T03:36:07.105Z,0.00
2023-03-15T03:37:07.184Z,0.00
2023-03-15T03:38:07.285Z,0.00
2023-03-15T03:39:07.380Z,0.00
2023-03-15T03:40:07.523Z,0.00
2023-03-15T03:41:07.585Z,0.00
2023-03-15T03:42:07.774Z,0.00
2023-03-15T03:43:07.851Z,0.00
2023-03-15T03:44:08.027Z,0.00
2023-03-15T03:45:08.121Z,0.00
2023-03-15T03:46:08.259Z,0.00
2023-03-15T03:47:08.419Z,0.00
2023-03-15T03:48:08.490Z,0.00
2023-03-15T03:49:08.596Z,0.00
2023-03-15T03:50:08.762Z,0.00
2023-03-15T03:51:08.858Z,0.00
2023-03-15T03:52:09.019Z,0.00
2023-03-15T03:53:09.125Z,0.00
2023-03-15T03:54:09.216Z,0.00
2023-03-15T03:55:09.318Z,0.00
2023-03-15T03:56:09.412Z,0.00
2023-03-15T03:57:09.604Z,0.00
2023-03-15T03:58:09.720Z,0.00
2023-03-15T03:59:09.846Z,0.00
2023-03-15T04:00:10.015Z,0.00
2023-03-15T04:01:10.117Z,0.00
2023-03-15T04:02:10.268Z,0.00
2023-03-15T04:03:10.331Z,0.00
2023-03-15T04:04:10.491Z,0.00
2023-03-15T04:05:10.600Z,0.00
2023-03-15T04:06:10.695Z,0.00
2023-03-15T04:07:10.827Z,0.00
2023-03-15T04:08:10.913Z,0.00
2023-03-15T04:09:11.051Z,0.00
2023-03-15T04:10:11.163Z,0.00
2023-03-15T04:11:11.250Z,0.00
2023-03-15T04:12:11.415Z,0.00
2023-03-15T04:13:11.562Z,0.00
2023-03-15T04:14:11.723Z,0.00
2023-03-15T04:15:11.824Z,0.00
2023-03-15T04:16:11.949Z,0.00
2023-03-15T04:17:12.048Z,0.00
2023-03-15T04:18:12.171Z,0.00
2023-03-15T04:19:12.261Z,0.00
2023-03-15T04:20:12.472Z,0.00
2023-03-15T04:21:12.507Z,0.00
2023-03-15T04:22:12.665Z,0.00
2023-03-15T04:23:12.796Z,0.00
2023-03-15T04:24:12.887Z,0.00
2023-03-15T04:25:12.997Z,0.00
2023-03-15T04:26:13.095Z,0.00
2023-03-15T04:27:13.245Z,0.00
2023-03-15T04:28:13.364Z,0.00
2023-03-15T04:29:13.459Z,0.00
2023-03-15T04:30:13.629Z,0.00
2023-03-15T04:31:13.871Z,0.00
2023-03-15T04:32:13.837Z,0.00
2023-03-15T04:33:13.989Z,0.00
2023-03-15T04:34:14.142Z,0.00
2023-03-15T04:35:14.283Z,0.00
2023-03-15T04:36:14.424Z,0.00
2023-03-15T04:37:14.527Z,0.00
2023-03-15T04:38:14.688Z,0.00
2023-03-15T04:39:14.810Z,0.00
2023-03-15T04:40:14.906Z,0.00
2023-03-15T04:41:15.023Z,0.00
2023-03-15T04:42:15.144Z,0.00
2023-03-15T04:43:15.250Z,0.00
2023-03-15T04:44:15.405Z,0.00
2023-03-15T04:45:15.520Z,0.00
2023-03-15T04:46:15.698Z,0.00
2023-03-15T04:47:15.777Z,0.00
2023-03-15T04:48:15.919Z,0.00
2023-03-15T04:49:16.070Z,0.00
2023-03-15T04:50:16.207Z,0.00
2023-03-15T04:51:16.395Z,0.00
2023-03-15T04:52:16.702Z,0.00
2023-03-15T04:53:16.572Z,0.00
2023-03-15T04:54:16.724Z,0.00
2023-03-15T04:55:16.842Z,0.00
2023-03-15T04:56:16.981Z,0.00
2023-03-15T04:57:17.093Z,0.00
2023-03-15T04:58:17.222Z,0.00
2023-03-15T04:59:17.312Z,0.00
2023-03-15T05:00:17.466Z,0.00
2023-03-15T05:01:17.622Z,0.00
2023-03-15T05:02:17.744Z,0.00
2023-03-15T05:03:17.863Z,0.00
2023-03-15T05:04:17.976Z,0.00
2023-03-15T05:05:18.060Z,0.00
2023-03-15T05:06:18.212Z,0.00
2023-03-15T05:07:18.336Z,0.00
2023-03-15T05:08:18.438Z,0.00
2023-03-15T05:09:18.554Z,0.00
2023-03-15T05:10:18.677Z,0.00
2023-03-15T05:11:18.770Z,0.00
2023-03-15T05:12:18.934Z,0.00
2023-03-15T05:13:19.043Z,0.00
2023-03-15T05:14:19.171Z,0.00
2023-03-15T05:15:19.331Z,0.00
2023-03-15T05:16:19.495Z,0.00
2023-03-15T05:17:19.517Z,0.00
2023-03-15T05:18:19.626Z,0.00
2023-03-15T05:19:19.742Z,0.00
2023-03-15T05:20:19.833Z,4.00
2023-03-15T05:21:19.979Z,4.00
2023-03-15T05:22:20.131Z,4.00
2023-03-15T05:23:20.288Z,4.00
2023-03-15T05:24:20.512Z,0.00
2023-03-15T06:03:51.765Z,264.00
2023-03-15T06:04:51.790Z,244.00
2023-03-15T06:05:51.884Z,300.00
2023-03-15T06:06:52.005Z,356.00
2023-03-15T06:07:52.105Z,364.00
2023-03-15T06:08:52.268Z,368.00
2023-03-15T10:21:27.976Z,27104.00
2023-03-15T10:22:25.422Z,23392.00
2023-03-15T10:23:25.554Z,13376.00
2023-03-15T10:24:25.691Z,26304.00
2023-03-15T10:25:25.840Z,14304.00
2023-03-15T10:26:25.996Z,13624.00
2023-03-15T10:27:26.068Z,28416.00
2023-03-15T11:10:07.214Z,12984.00
2023-03-15T11:11:07.330Z,13068.00
2023-03-15T11:12:07.436Z,12204.00
2023-03-15T11:13:07.606Z,11760.00
2023-03-15T11:14:07.752Z,10716.00
2023-03-15T11:15:07.890Z,10032.00
2023-03-15T11:16:07.996Z,9592.00
2023-03-15T11:17:08.082Z,9180.00
2023-03-15T11:18:09.496Z,9136.00
2023-03-15T11:19:08.321Z,8328.00
2023-03-15T11:20:08.535Z,7892.00
2023-03-15T11:21:08.579Z,7644.00
2023-03-15T11:22:08.670Z,7664.00
2023-03-15T11:23:08.792Z,8120.00
2023-03-15T11:24:08.891Z,7536.00
2023-03-15T11:25:09.039Z,7700.00
2023-03-15T11:26:09.644Z,8124.00
2023-03-15T11:27:09.309Z,8924.00
2023-03-15T11:39:43.443Z,8140.00
2023-03-15T11:40:43.553Z,9504.00
2023-03-15T11:41:43.676Z,10144.00
2023-03-15T11:42:43.769Z,12288.00
2023-03-15T11:43:43.884Z,11872.00
2023-03-15T11:44:43.986Z,11668.00
2023-03-15T11:45:44.135Z,10668.00
2023-03-15T11:46:44.240Z,9124.00
2023-03-15T11:47:44.334Z,7428.00
2023-03-15T11:48:44.444Z,6596.00
2023-03-15T11:49:44.569Z,6016.00
2023-03-15T11:50:45.324Z,5820.00
2023-03-15T11:51:44.839Z,5180.00
2023-03-15T11:52:45.027Z,5120.00
2023-03-15T11:53:45.074Z,5660.00
2023-03-15T11:54:45.195Z,5808.00
2023-03-15T11:55:45.342Z,6312.00
2023-03-15T11:56:45.851Z,6932.00
2023-03-15T11:57:45.625Z,7488.00
2023-03-15T11:58:45.706Z,8512.00
2023-03-15T11:59:45.933Z,9468.00
2023-03-15T12:00:45.973Z,11132.00
2023-03-15T12:01:46.191Z,13372.00
2023-03-15T12:02:46.165Z,13032.00
2023-03-15T12:03:46.376Z,13064.00
2023-03-15T12:04:46.388Z,12816.00
2023-03-15T12:05:46.611Z,12168.00
2023-03-15T12:06:46.621Z,14084.00
2023-03-15T12:09:25.144Z,12124.00
2023-03-15T12:10:24.289Z,12280.00
2023-03-15T12:11:24.404Z,11364.00
2023-03-15T12:12:24.439Z,10532.00
2023-03-15T12:13:24.574Z,10124.00
2023-03-15T12:14:24.674Z,9668.00
2023-03-15T12:15:24.792Z,10484.00
2023-03-15T12:16:24.906Z,11172.00
2023-03-15T12:17:25.040Z,11640.00
2023-03-15T12:18:25.112Z,12340.00
2023-03-15T12:19:25.249Z,12424.00
2023-03-15T12:20:25.361Z,12824.00
2023-03-15T12:21:25.495Z,13592.00
2023-03-15T12:22:25.592Z,13620.00
2023-03-15T12:23:25.706Z,12972.00
2023-03-15T12:24:25.834Z,11248.00
2023-03-15T12:25:25.936Z,10708.00
2023-03-15T12:26:26.110Z,10388.00
2023-03-15T12:27:26.190Z,11404.00
2023-03-15T12:28:26.273Z,11396.00
2023-03-15T12:29:26.510Z,11288.00
2023-03-15T12:30:26.489Z,11416.00
2023-03-15T12:31:26.667Z,11352.00
2023-03-15T12:32:26.724Z,11784.00
2023-03-15T12:33:26.806Z,11460.00
2023-03-15T12:34:26.913Z,10776.00
2023-03-15T12:35:27.090Z,10664.00
2023-03-15T12:36:27.136Z,10060.00
2023-03-15T12:37:27.371Z,10144.00
2023-03-15T12:38:27.344Z,10904.00
2023-03-15T12:39:27.523Z,12380.00
2023-03-15T12:40:27.639Z,12512.00
2023-03-15T12:41:27.745Z,11396.00
2023-03-15T12:42:27.887Z,12196.00
2023-03-15T12:43:27.962Z,10804.00
2023-03-15T12:44:28.072Z,10352.00
2023-03-15T12:45:28.202Z,9984.00
2023-03-15T12:46:28.332Z,10720.00
2023-03-15T12:47:28.461Z,10840.00
2023-03-15T12:48:28.596Z,10468.00
2023-03-15T12:49:28.812Z,9656.00
2023-03-15T12:50:28.900Z,10944.00
2023-03-15T12:51:28.895Z,11096.00
2023-03-15T12:52:29.028Z,11176.00
2023-03-15T12:53:29.140Z,10256.00
2023-03-15T12:54:29.273Z,10868.00
2023-03-15T12:55:29.350Z,9056.00
2023-03-15T12:56:29.463Z,9764.00
2023-03-15T12:57:30.276Z,7696.00
2023-03-15T12:58:29.722Z,6612.00
2023-03-15T12:59:29.828Z,6248.00
2023-03-15T13:00:29.946Z,5408.00
2023-03-15T13:01:30.097Z,5048.00
2023-03-15T13:02:42.324Z,5016.00
2023-03-15T13:03:31.360Z,5008.00
2023-03-15T13:04:30.408Z,5512.00
2023-03-15T13:05:30.526Z,6008.00
2023-03-15T13:06:30.615Z,6712.00
2023-03-15T13:07:33.186Z,7260.00
2023-03-15T13:08:30.913Z,8672.00
2023-03-15T13:09:31.025Z,8508.00
2023-03-15T13:10:31.500Z,8748.00
2023-03-15T13:11:31.303Z,9100.00
2023-03-15T13:12:31.367Z,9560.00
2023-03-15T13:13:31.486Z,9540.00
2023-03-15T13:14:31.599Z,9668.00
2023-03-15T13:15:31.736Z,9596.00
2023-03-15T13:16:31.852Z,9520.00
2023-03-15T13:17:32.002Z,10088.00
2023-03-15T13:18:32.110Z,10372.00
2023-03-15T13:19:32.205Z,9912.00
2023-03-15T13:20:32.291Z,10484.00
2023-03-15T13:21:32.463Z,11168.00
2023-03-15T13:22:32.667Z,11308.00
2023-03-15T13:23:32.711Z,11268.00
2023-03-15T13:24:32.814Z,11244.00
2023-03-15T13:25:32.912Z,11268.00
2023-03-15T13:26:33.014Z,11320.00
2023-03-15T13:27:33.241Z,10988.00
2023-03-15T13:28:33.266Z,10916.00
2023-03-15T13:29:33.476Z,10724.00
2023-03-15T13:30:33.497Z,11208.00
2023-03-15T13:31:33.611Z,11260.00
2023-03-15T13:32:33.764Z,11248.00
2023-03-15T13:33:33.791Z,10548.00
2023-03-15T13:34:33.913Z,10416.00
2023-03-15T13:35:34.211Z,9488.00
2023-03-15T13:36:34.112Z,9092.00
2023-03-15T13:37:34.251Z,7816.00
2023-03-15T13:38:34.372Z,7816.00
2023-03-15T13:39:34.535Z,8668.00
2023-03-15T13:40:34.699Z,8484.00
2023-03-15T13:41:34.843Z,8176.00
2023-03-15T13:42:34.936Z,8160.00
2023-03-15T13:43:35.065Z,8544.00
2023-03-15T13:44:35.259Z,7716.00
2023-03-15T13:45:36.857Z,7456.00
2023-03-15T13:46:35.856Z,7256.00
2023-03-15T13:47:35.580Z,7032.00
2023-03-15T13:48:35.703Z,7100.00
2023-03-15T13:49:37.543Z,7208.00
2023-03-15T13:50:35.887Z,7232.00
2023-03-15T13:51:36.016Z,7448.00
2023-03-15T13:52:36.108Z,7304.00
2023-03-15T13:53:48.904Z,7252.00
2023-03-15T13:54:37.370Z,7472.00
2023-03-15T13:55:36.458Z,7376.00
2023-03-15T13:56:48.854Z,7624.00
2023-03-15T13:57:37.719Z,7388.00
2023-03-15T13:58:36.904Z,7348.00
2023-03-15T13:59:38.677Z,7712.00
2023-03-15T14:00:37.288Z,7936.00
2023-03-15T14:01:37.323Z,7860.00
2023-03-15T14:02:37.364Z,7408.00
2023-03-15T14:03:37.518Z,7316.00
2023-03-15T14:04:37.635Z,8084.00
2023-03-15T14:05:37.717Z,8500.00
2023-03-15T14:06:37.873Z,7924.00
2023-03-15T14:07:37.993Z,7432.00
2023-03-15T14:08:38.076Z,7308.00
2023-03-15T14:09:38.288Z,7116.00
2023-03-15T14:10:38.293Z,6980.00
2023-03-15T14:11:38.426Z,6996.00
2023-03-15T14:12:38.569Z,6680.00
2023-03-15T14:13:38.710Z,7100.00
2023-03-15T14:14:38.821Z,7012.00
2023-03-15T14:15:38.932Z,6888.00
2023-03-15T14:16:53.582Z,6544.00
2023-03-15T14:17:40.169Z,6780.00
2023-03-15T14:18:39.296Z,7088.00
2023-03-15T14:19:39.426Z,6892.00
2023-03-15T14:20:39.548Z,7112.00
2023-03-15T14:21:39.640Z,7552.00
2023-03-15T14:22:39.790Z,8356.00
2023-03-15T14:23:39.910Z,8756.00
2023-03-15T14:24:40.032Z,8808.00
2023-03-15T14:25:40.116Z,8732.00
2023-03-15T14:26:40.235Z,8620.00
2023-03-15T14:27:40.393Z,8864.00
2023-03-15T14:28:40.486Z,8492.00
2023-03-15T14:29:40.756Z,8236.00
2023-03-15T14:30:40.704Z,8488.00
2023-03-15T14:31:40.871Z,7916.00
2023-03-15T14:32:40.957Z,7396.00
2023-03-15T14:33:41.041Z,7364.00
2023-03-15T14:34:41.137Z,7108.00
2023-03-15T14:35:41.262Z,6836.00
2023-03-15T14:36:41.438Z,6688.00
2023-03-15T14:37:41.462Z,6644.00
2023-03-15T14:38:41.673Z,6608.00
2023-03-15T14:39:41.804Z,6400.00
2023-03-15T14:40:41.806Z,6312.00
2023-03-15T14:41:41.916Z,6372.00
2023-03-15T14:42:42.015Z,6656.00
2023-03-15T14:43:42.149Z,6692.00
2023-03-15T14:44:42.284Z,6680.00
2023-03-15T14:45:42.382Z,6776.00
2023-03-15T14:46:42.472Z,6732.00
2023-03-15T14:47:55.100Z,6724.00
2023-03-15T14:48:43.852Z,6376.00
2023-03-15T14:49:42.922Z,5956.00
2023-03-15T14:50:43.180Z,6240.00
2023-03-15T14:51:43.063Z,6096.00
2023-03-15T14:52:43.200Z,6212.00
2023-03-15T14:53:43.293Z,6044.00
2023-03-15T14:54:43.421Z,5504.00
2023-03-15T14:55:43.519Z,5580.00
2023-03-15T14:56:44.532Z,5436.00
2023-03-15T14:57:43.768Z,5684.00
2023-03-15T14:58:43.852Z,5744.00
2023-03-15T14:59:44.026Z,5592.00
2023-03-15T15:00:44.319Z,5560.00
2023-03-15T15:01:46.789Z,5540.00
2023-03-15T15:02:44.396Z,5716.00
2023-03-15T15:03:44.479Z,6236.00
2023-03-15T15:04:44.620Z,6524.00
2023-03-15T15:05:44.748Z,6840.00
2023-03-15T15:06:44.837Z,7300.00
2023-03-15T15:07:44.957Z,7880.00
2023-03-15T15:08:45.069Z,7860.00
2023-03-15T15:09:45.217Z,7916.00
2023-03-15T15:10:45.277Z,7612.00
2023-03-15T15:11:45.411Z,7304.00
2023-03-15T15:12:48.545Z,6892.00
2023-03-15T15:13:46.662Z,7208.00
2023-03-15T15:14:45.750Z,6944.00
2023-03-15T15:15:55.184Z,6712.00
2023-03-15T15:16:47.260Z,6480.00
2023-03-15T15:17:46.134Z,6304.00
2023-03-15T15:18:46.233Z,6096.00
2023-03-15T15:19:47.124Z,5984.00
2023-03-15T15:20:46.480Z,5816.00
2023-03-15T15:21:46.648Z,5728.00
2023-03-15T15:22:46.754Z,5428.00
2023-03-15T15:23:57.997Z,5680.00
2023-03-15T15:24:49.704Z,5236.00
2023-03-15T15:25:47.070Z,5288.00
2023-03-15T15:26:47.201Z,5384.00
2023-03-15T15:27:47.309Z,5300.00
2023-03-15T15:28:47.402Z,5428.00
2023-03-15T15:29:47.589Z,5412.00
2023-03-15T15:30:47.659Z,5424.00
2023-03-15T15:31:47.805Z,5432.00
2023-03-15T15:32:47.984Z,5304.00
2023-03-15T15:33:47.970Z,5308.00
2023-03-15T15:34:48.079Z,5340.00
2023-03-15T15:35:48.180Z,5292.00
2023-03-15T15:36:48.310Z,5284.00
2023-03-15T15:37:48.446Z,5092.00
2023-03-15T15:38:48.547Z,5040.00
2023-03-15T15:39:48.673Z,4976.00
2023-03-15T15:40:48.770Z,4972.00
2023-03-15T15:41:48.866Z,4944.00
2023-03-15T15:42:48.997Z,4936.00
2023-03-15T15:43:49.148Z,4928.00
2023-03-15T15:44:49.247Z,4868.00
2023-03-15T15:45:49.373Z,4832.00
2023-03-15T15:46:49.474Z,4756.00
2023-03-15T15:47:49.632Z,4720.00
2023-03-15T15:48:49.692Z,4668.00
2023-03-15T15:49:49.874Z,4692.00
2023-03-15T15:50:49.892Z,4444.00
2023-03-15T15:51:50.362Z,4472.00
2023-03-15T15:52:50.115Z,4348.00
2023-03-15T15:53:50.243Z,4356.00
2023-03-15T15:54:50.354Z,4224.00
2023-03-15T15:55:50.473Z,4052.00
2023-03-15T15:56:50.639Z,3756.00
2023-03-15T15:57:50.670Z,3836.00
2023-03-15T15:58:50.829Z,3668.00
2023-03-15T15:59:50.877Z,3812.00
2023-03-15T16:00:51.000Z,3616.00
2023-03-15T16:02:00.493Z,3548.00
2023-03-15T16:02:52.272Z,3576.00
2023-03-15T16:03:51.333Z,3536.00
2023-03-15T16:04:51.449Z,3528.00
2023-03-15T16:05:51.547Z,3504.00
2023-03-15T16:06:51.660Z,3424.00
2023-03-15T16:07:51.798Z,3360.00
2023-03-15T16:08:51.876Z,3292.00
2023-03-15T16:09:52.233Z,3216.00
2023-03-15T16:10:52.090Z,3192.00
2023-03-15T16:11:52.193Z,3296.00
2023-03-15T16:12:52.424Z,3308.00
2023-03-15T16:13:52.413Z,3304.00
2023-03-15T16:14:52.528Z,3336.00
2023-03-15T16:15:52.711Z,3312.00
2023-03-15T16:16:52.763Z,3352.00
2023-03-15T16:17:52.885Z,3300.00
2023-03-15T16:18:52.989Z,3276.00
2023-03-15T16:19:53.124Z,3252.00
2023-03-15T16:20:53.233Z,3088.00
2023-03-15T16:21:53.374Z,3032.00
2023-03-15T16:22:53.541Z,3052.00
2023-03-15T16:23:53.603Z,3048.00
2023-03-15T16:24:53.746Z,3044.00
2023-03-15T16:25:53.860Z,3016.00
2023-03-15T16:26:53.983Z,3048.00
2023-03-15T16:27:54.100Z,3100.00
2023-03-15T16:28:54.174Z,2976.00
2023-03-15T16:29:54.322Z,2808.00
2023-03-15T16:30:54.452Z,2796.00
2023-03-15T16:31:55.992Z,2904.00
2023-03-15T16:32:54.659Z,2624.00
2023-03-15T16:33:54.849Z,2564.00
2023-03-15T16:34:54.904Z,2528.00
2023-03-15T16:35:55.024Z,2404.00
2023-03-15T16:36:55.157Z,2428.00
2023-03-15T16:37:55.221Z,2396.00
2023-03-15T16:38:55.353Z,2360.00
2023-03-15T16:39:55.584Z,2280.00
2023-03-15T16:40:55.600Z,2336.00
2023-03-15T16:41:55.734Z,2292.00
2023-03-15T16:42:55.880Z,2152.00
2023-03-15T16:43:56.975Z,2224.00
2023-03-15T16:44:56.008Z,2148.00
2023-03-15T16:45:56.117Z,2100.00
2023-03-15T16:46:56.226Z,2044.00
2023-03-15T16:47:56.382Z,1964.00
2023-03-15T16:48:56.485Z,1756.00
2023-03-15T16:49:56.627Z,1748.00
2023-03-15T16:50:56.675Z,1684.00
2023-03-15T16:51:56.801Z,1496.00
2023-03-15T16:52:56.954Z,1388.00
2023-03-15T16:54:08.565Z,1324.00
2023-03-15T16:54:58.117Z,1164.00
2023-03-15T16:55:57.287Z,1048.00
2023-03-15T16:56:57.395Z,988.00
2023-03-15T16:57:57.530Z,932.00
2023-03-15T16:58:57.677Z,912.00
2023-03-15T16:59:57.728Z,796.00
2023-03-15T17:00:57.834Z,864.00
2023-03-15T17:01:57.994Z,844.00
2023-03-15T17:02:58.093Z,764.00
2023-03-15T17:03:58.293Z,708.00
2023-03-15T17:04:58.323Z,736.00
2023-03-15T17:05:58.443Z,756.00
2023-03-15T17:06:59.525Z,752.00
2023-03-15T17:07:58.686Z,760.00
2023-03-15T17:08:58.815Z,760.00
2023-03-15T17:09:59.616Z,748.00
2023-03-15T17:10:59.052Z,708.00
2023-03-15T17:11:59.202Z,652.00
2023-03-15T17:12:59.329Z,620.00
2023-03-15T17:13:59.479Z,624.00
2023-03-15T17:14:59.540Z,588.00
2023-03-15T17:15:59.679Z,520.00
2023-03-15T17:16:59.799Z,480.00
2023-03-15T17:18:01.865Z,456.00
2023-03-15T17:19:00.342Z,432.00
2023-03-15T17:20:00.224Z,392.00
2023-03-15T17:21:01.322Z,368.00
2023-03-15T17:22:00.403Z,352.00
2023-03-15T17:23:02.563Z,320.00
2023-03-15T17:24:00.712Z,304.00
2023-03-15T17:25:02.254Z,284.00
2023-03-15T17:26:00.919Z,268.00
2023-03-15T17:27:01.038Z,248.00
2023-03-15T17:28:01.178Z,232.00
2023-03-15T17:29:01.285Z,220.00
2023-03-15T17:30:01.421Z,204.00
2023-03-15T17:31:20.219Z,188.00
2023-03-15T17:32:02.756Z,176.00
2023-03-15T17:33:01.841Z,164.00
2023-03-15T17:34:14.629Z,148.00
2023-03-15T17:35:03.087Z,136.00
2023-03-15T17:36:02.306Z,124.00
2023-03-15T17:37:02.431Z,116.00
2023-03-15T17:38:03.425Z,104.00
2023-03-15T17:39:04.160Z,96.00
2023-03-15T17:40:03.727Z,84.00
2023-03-15T17:41:02.903Z,76.00
2023-03-15T17:42:02.956Z,72.00
2023-03-15T17:43:03.127Z,60.00
2023-03-15T17:44:03.165Z,56.00
2023-03-15T17:45:03.339Z,52.00
2023-03-15T17:46:03.434Z,44.00
2023-03-15T17:47:05.191Z,36.00
2023-03-15T17:48:03.634Z,36.00
2023-03-15T17:49:03.836Z,32.00
2023-03-15T17:50:04.810Z,28.00
2023-03-15T17:51:04.131Z,24.00
2023-03-15T17:52:04.272Z,16.00
2023-03-15T17:53:04.775Z,16.00
2023-03-15T17:54:04.590Z,12.00
2023-03-15T17:55:06.391Z,12.00
2023-03-15T17:56:04.960Z,8.00
2023-03-15T17:57:04.694Z,8.00
2023-03-15T17:58:04.829Z,8.00
2023-03-15T17:59:04.935Z,4.00
2023-03-15T18:00:05.061Z,8.00
2023-03-15T18:01:05.282Z,4.00
2023-03-15T18:02:05.302Z,4.00
2023-03-15T18:03:05.459Z,4.00
2023-03-15T18:04:05.555Z,0.00
2023-03-15T18:05:05.693Z,4.00
2023-03-15T18:06:05.849Z,4.00
2023-03-15T18:07:05.920Z,4.00
2023-03-15T18:08:06.126Z,4.00
2023-03-15T18:09:06.992Z,0.00
2023-03-15T18:10:06.310Z,0.00
2023-03-15T18:11:06.362Z,0.00
2023-03-15T18:12:06.509Z,0.00
2023-03-15T18:13:07.522Z,0.00
2023-03-15T18:14:06.693Z,0.00
2023-03-15T18:15:08.238Z,0.00
2023-03-15T18:16:06.943Z,0.00
2023-03-15T18:17:07.017Z,0.00
2023-03-15T18:18:07.134Z,0.00
2023-03-15T18:19:07.229Z,0.00
2023-03-15T18:20:07.392Z,0.00
2023-03-15T18:21:07.526Z,0.00
2023-03-15T18:22:07.646Z,0.00
2023-03-15T18:23:07.746Z,0.00
2023-03-15T18:24:07.844Z,0.00